sensor_id;sensor_type;location;lat;lon;timestamp;pressure;altitude;pressure_sealevel;temperature;humidity
43115;BME280;28727;50.068;14.452;2022-09-29T00:00:26;97879.06;;;8.17;76.77
43115;BME280;28727;50.068;14.452;2022-09-29T00:02:57;97881.25;;;8.14;76.87
43115;BME280;28727;50.068;14.452;2022-09-29T00:05:29;97880.66;;;8.12;76.39
43115;BME280;28727;50.068;14.452;2022-09-29T00:08:01;97887.50;;;8.13;76.46
43115;BME280;28727;50.068;14.452;2022-09-29T00:10:32;97894.16;;;8.09;75.90
43115;BME280;28727;50.068;14.452;2022-09-29T00:13:04;97886.66;;;8.06;76.44
43115;BME280;28727;50.068;14.452;2022-09-29T00:15:37;97892.28;;;8.03;76.68
43115;BME280;28727;50.068;14.452;2022-09-29T00:18:09;97887.59;;;7.98;76.92
43115;BME280;28727;50.068;14.452;2022-09-29T00:23:32;97889.34;;;7.91;76.98
43115;BME280;28727;50.068;14.452;2022-09-29T00:26:13;97886.28;;;7.88;76.54
43115;BME280;28727;50.068;14.452;2022-09-29T00:28:50;97886.84;;;7.83;76.42
43115;BME280;28727;50.068;14.452;2022-09-29T00:31:26;97882.06;;;7.72;76.46
43115;BME280;28727;50.068;14.452;2022-09-29T00:34:00;97887.00;;;7.60;77.10
43115;BME280;28727;50.068;14.452;2022-09-29T00:36:35;97880.13;;;7.59;77.92
43115;BME280;28727;50.068;14.452;2022-09-29T00:39:11;97881.72;;;7.60;77.60
43115;BME280;28727;50.068;14.452;2022-09-29T00:41:43;97879.75;;;7.62;77.80
43115;BME280;28727;50.068;14.452;2022-09-29T00:46:56;97887.88;;;7.67;77.91
43115;BME280;28727;50.068;14.452;2022-09-29T00:49:48;97888.34;;;7.71;77.04
43115;BME280;28727;50.068;14.452;2022-09-29T00:52:27;97888.13;;;7.72;77.09
43115;BME280;28727;50.068;14.452;2022-09-29T00:55:01;97893.59;;;7.71;76.75
43115;BME280;28727;50.068;14.452;2022-09-29T00:57:40;97885.50;;;7.72;76.41
43115;BME280;28727;50.068;14.452;2022-09-29T01:00:16;97896.22;;;7.71;76.62
43115;BME280;28727;50.068;14.452;2022-09-29T01:02:59;97898.03;;;7.70;77.06
43115;BME280;28727;50.068;14.452;2022-09-29T01:05:37;97893.13;;;7.67;77.24
43115;BME280;28727;50.068;14.452;2022-09-29T01:08:35;97896.97;;;7.65;76.37
43115;BME280;28727;50.068;14.452;2022-09-29T01:11:10;97889.91;;;7.65;76.75
43115;BME280;28727;50.068;14.452;2022-09-29T01:13:46;97892.06;;;7.62;76.99
43115;BME280;28727;50.068;14.452;2022-09-29T01:16:19;97895.09;;;7.59;77.50
43115;BME280;28727;50.068;14.452;2022-09-29T01:18:51;97894.25;;;7.58;76.94
43115;BME280;28727;50.068;14.452;2022-09-29T01:33:42;97906.09;;;7.33;77.88
43115;BME280;28727;50.068;14.452;2022-09-29T01:37:12;97908.72;;;7.33;78.18
43115;BME280;28727;50.068;14.452;2022-09-29T01:39:57;97909.97;;;7.37;77.72
43115;BME280;28727;50.068;14.452;2022-09-29T01:42:36;97910.59;;;7.39;78.11
43115;BME280;28727;50.068;14.452;2022-09-29T01:45:21;97903.53;;;7.39;77.72
43115;BME280;28727;50.068;14.452;2022-09-29T01:48:06;97908.16;;;7.37;77.70
43115;BME280;28727;50.068;14.452;2022-09-29T01:50:46;97903.09;;;7.36;77.83
43115;BME280;28727;50.068;14.452;2022-09-29T01:53:37;97905.09;;;7.34;78.31
43115;BME280;28727;50.068;14.452;2022-09-29T01:56:18;97908.53;;;7.34;77.90
43115;BME280;28727;50.068;14.452;2022-09-29T01:58:55;97905.28;;;7.32;77.85
43115;BME280;28727;50.068;14.452;2022-09-29T02:01:35;97906.91;;;7.33;77.76
43115;BME280;28727;50.068;14.452;2022-09-29T02:04:19;97905.28;;;7.32;77.20
43115;BME280;28727;50.068;14.452;2022-09-29T02:06:57;97901.81;;;7.32;77.96
43115;BME280;28727;50.068;14.452;2022-09-29T02:09:36;97907.09;;;7.32;77.35
43115;BME280;28727;50.068;14.452;2022-09-29T02:12:13;97904.28;;;7.33;77.28
43115;BME280;28727;50.068;14.452;2022-09-29T02:14:50;97909.72;;;7.32;77.16
43115;BME280;28727;50.068;14.452;2022-09-29T02:17:33;97908.28;;;7.29;77.27
43115;BME280;28727;50.068;14.452;2022-09-29T02:20:09;97910.25;;;7.27;77.54
43115;BME280;28727;50.068;14.452;2022-09-29T02:22:44;97909.63;;;7.25;77.24
43115;BME280;28727;50.068;14.452;2022-09-29T02:25:17;97908.81;;;7.25;76.98
43115;BME280;28727;50.068;14.452;2022-09-29T02:27:52;97911.81;;;7.22;77.72
43115;BME280;28727;50.068;14.452;2022-09-29T02:30:26;97907.47;;;7.14;77.64
43115;BME280;28727;50.068;14.452;2022-09-29T02:33:00;97912.28;;;7.11;77.56
43115;BME280;28727;50.068;14.452;2022-09-29T02:39:01;97921.31;;;7.08;77.73
43115;BME280;28727;50.068;14.452;2022-09-29T02:44:14;97929.84;;;7.10;77.61
43115;BME280;28727;50.068;14.452;2022-09-29T02:47:13;97924.59;;;7.10;77.51
43115;BME280;28727;50.068;14.452;2022-09-29T02:56:15;97927.03;;;7.12;77.20
43115;BME280;28727;50.068;14.452;2022-09-29T02:59:07;97940.34;;;7.10;77.31
43115;BME280;28727;50.068;14.452;2022-09-29T03:01:51;97936.25;;;7.08;77.52
43115;BME280;28727;50.068;14.452;2022-09-29T03:04:25;97941.34;;;7.09;77.23
43115;BME280;28727;50.068;14.452;2022-09-29T03:06:57;97944.78;;;7.10;77.13
43115;BME280;28727;50.068;14.452;2022-09-29T03:09:29;97944.78;;;7.10;77.01
43115;BME280;28727;50.068;14.452;2022-09-29T03:12:01;97946.75;;;7.08;77.37
43115;BME280;28727;50.068;14.452;2022-09-29T03:14:32;97945.16;;;7.07;77.21
43115;BME280;28727;50.068;14.452;2022-09-29T03:17:04;97949.75;;;7.05;77.20
43115;BME280;28727;50.068;14.452;2022-09-29T03:19:36;97948.78;;;7.06;76.98
43115;BME280;28727;50.068;14.452;2022-09-29T03:22:10;97944.50;;;7.05;77.26
43115;BME280;28727;50.068;14.452;2022-09-29T03:24:41;97943.69;;;7.04;76.95
43115;BME280;28727;50.068;14.452;2022-09-29T03:27:13;97943.50;;;7.06;77.42
43115;BME280;28727;50.068;14.452;2022-09-29T03:29:45;97932.38;;;7.04;77.93
43115;BME280;28727;50.068;14.452;2022-09-29T03:32:16;97946.50;;;7.03;77.49
43115;BME280;28727;50.068;14.452;2022-09-29T03:34:48;97936.53;;;6.98;77.72
43115;BME280;28727;50.068;14.452;2022-09-29T03:37:20;97940.97;;;6.97;78.31
43115;BME280;28727;50.068;14.452;2022-09-29T03:39:51;97941.78;;;6.98;77.75
43115;BME280;28727;50.068;14.452;2022-09-29T03:42:26;97950.38;;;6.92;78.28
43115;BME280;28727;50.068;14.452;2022-09-29T03:44:59;97944.47;;;6.90;78.24
43115;BME280;28727;50.068;14.452;2022-09-29T03:47:33;97945.31;;;6.90;78.53
43115;BME280;28727;50.068;14.452;2022-09-29T03:50:05;97944.13;;;6.93;78.58
43115;BME280;28727;50.068;14.452;2022-09-29T03:52:37;97941.69;;;6.91;78.20
43115;BME280;28727;50.068;14.452;2022-09-29T03:55:11;97950.56;;;6.90;78.69
43115;BME280;28727;50.068;14.452;2022-09-29T03:57:44;97951.38;;;6.91;78.66
43115;BME280;28727;50.068;14.452;2022-09-29T04:00:16;97963.50;;;6.92;78.62
43115;BME280;28727;50.068;14.452;2022-09-29T04:02:48;97952.19;;;6.91;78.76
43115;BME280;28727;50.068;14.452;2022-09-29T04:05:22;97959.72;;;6.94;78.59
43115;BME280;28727;50.068;14.452;2022-09-29T04:07:54;97960.53;;;6.95;78.30
43115;BME280;28727;50.068;14.452;2022-09-29T04:10:28;97955.09;;;6.96;78.61
43115;BME280;28727;50.068;14.452;2022-09-29T04:13:00;97953.44;;;6.95;78.39
43115;BME280;28727;50.068;14.452;2022-09-29T04:15:32;97961.16;;;6.97;78.06
43115;BME280;28727;50.068;14.452;2022-09-29T04:18:04;97954.09;;;6.97;78.27
43115;BME280;28727;50.068;14.452;2022-09-29T04:20:39;97955.63;;;6.92;77.77
43115;BME280;28727;50.068;14.452;2022-09-29T04:23:11;97962.84;;;6.90;77.66
43115;BME280;28727;50.068;14.452;2022-09-29T04:25:44;97957.59;;;6.90;78.39
43115;BME280;28727;50.068;14.452;2022-09-29T04:28:19;97961.25;;;6.89;77.77
43115;BME280;28727;50.068;14.452;2022-09-29T04:30:50;97957.81;;;6.88;77.68
43115;BME280;28727;50.068;14.452;2022-09-29T04:33:22;97962.25;;;6.88;77.68
43115;BME280;28727;50.068;14.452;2022-09-29T04:35:54;97960.44;;;6.88;77.87
43115;BME280;28727;50.068;14.452;2022-09-29T04:38:26;97965.69;;;6.88;77.71
43115;BME280;28727;50.068;14.452;2022-09-29T04:40:58;97966.50;;;6.89;77.51
43115;BME280;28727;50.068;14.452;2022-09-29T04:43:30;97968.09;;;6.90;77.65
43115;BME280;28727;50.068;14.452;2022-09-29T04:46:04;97969.28;;;6.87;77.69
43115;BME280;28727;50.068;14.452;2022-09-29T04:48:39;97965.22;;;6.85;77.55
43115;BME280;28727;50.068;14.452;2022-09-29T04:51:10;97969.63;;;6.84;77.39
43115;BME280;28727;50.068;14.452;2022-09-29T04:53:45;97971.28;;;6.85;77.22
43115;BME280;28727;50.068;14.452;2022-09-29T04:56:16;97964.59;;;6.83;77.53
43115;BME280;28727;50.068;14.452;2022-09-29T04:58:51;97972.97;;;6.78;77.39
43115;BME280;28727;50.068;14.452;2022-09-29T05:01:23;97971.16;;;6.79;78.10
43115;BME280;28727;50.068;14.452;2022-09-29T05:03:56;97971.38;;;6.77;78.05
43115;BME280;28727;50.068;14.452;2022-09-29T05:06:27;97973.19;;;6.77;77.77
43115;BME280;28727;50.068;14.452;2022-09-29T05:08:59;97976.97;;;6.74;78.19
43115;BME280;28727;50.068;14.452;2022-09-29T05:11:31;97969.63;;;6.70;78.37
43115;BME280;28727;50.068;14.452;2022-09-29T05:14:03;97977.84;;;6.67;78.41
43115;BME280;28727;50.068;14.452;2022-09-29T05:16:37;97974.06;;;6.69;78.03
43115;BME280;28727;50.068;14.452;2022-09-29T05:19:11;97976.69;;;6.69;78.16
43115;BME280;28727;50.068;14.452;2022-09-29T05:21:43;97972.09;;;6.71;78.34
43115;BME280;28727;50.068;14.452;2022-09-29T05:24:14;97980.56;;;6.73;78.40
43115;BME280;28727;50.068;14.452;2022-09-29T05:26:46;97988.09;;;6.76;78.47
43115;BME280;28727;50.068;14.452;2022-09-29T05:29:18;97979.59;;;6.74;78.09
43115;BME280;28727;50.068;14.452;2022-09-29T05:31:50;97982.84;;;6.76;77.95
43115;BME280;28727;50.068;14.452;2022-09-29T05:34:22;97983.13;;;6.81;78.40
43115;BME280;28727;50.068;14.452;2022-09-29T05:36:54;97985.88;;;6.88;77.77
43115;BME280;28727;50.068;14.452;2022-09-29T05:39:26;97989.59;;;6.93;78.05
43115;BME280;28727;50.068;14.452;2022-09-29T05:42:09;97989.69;;;7.00;77.86
43115;BME280;28727;50.068;14.452;2022-09-29T05:44:41;97989.78;;;7.07;78.19
43115;BME280;28727;50.068;14.452;2022-09-29T05:47:13;97993.94;;;7.16;76.94
43115;BME280;28727;50.068;14.452;2022-09-29T05:49:46;97993.88;;;7.24;77.48
43115;BME280;28727;50.068;14.452;2022-09-29T05:52:18;97990.97;;;7.33;76.87
43115;BME280;28727;50.068;14.452;2022-09-29T05:54:49;97993.28;;;7.43;76.93
43115;BME280;28727;50.068;14.452;2022-09-29T05:57:21;97993.03;;;7.53;76.65
43115;BME280;28727;50.068;14.452;2022-09-29T05:59:53;97994.56;;;7.62;76.37
43115;BME280;28727;50.068;14.452;2022-09-29T06:02:24;97997.59;;;7.80;76.41
43115;BME280;28727;50.068;14.452;2022-09-29T06:04:56;97998.75;;;8.07;75.32
43115;BME280;28727;50.068;14.452;2022-09-29T06:07:28;98004.19;;;8.27;74.99
43115;BME280;28727;50.068;14.452;2022-09-29T06:09:59;97995.13;;;8.72;74.01
43115;BME280;28727;50.068;14.452;2022-09-29T06:12:35;98002.63;;;8.75;73.64
43115;BME280;28727;50.068;14.452;2022-09-29T06:15:07;98004.94;;;8.84;72.07
43115;BME280;28727;50.068;14.452;2022-09-29T06:17:42;98004.84;;;8.99;72.11
43115;BME280;28727;50.068;14.452;2022-09-29T06:20:15;98008.34;;;9.06;71.40
43115;BME280;28727;50.068;14.452;2022-09-29T06:22:55;98014.41;;;9.34;70.63
43115;BME280;28727;50.068;14.452;2022-09-29T06:25:26;98008.44;;;9.60;69.93
43115;BME280;28727;50.068;14.452;2022-09-29T06:27:58;97999.66;;;9.88;69.23
43115;BME280;28727;50.068;14.452;2022-09-29T06:30:30;98002.59;;;10.12;68.40
43115;BME280;28727;50.068;14.452;2022-09-29T06:33:02;97999.63;;;10.29;67.24
43115;BME280;28727;50.068;14.452;2022-09-29T06:35:33;97996.16;;;10.35;66.57
43115;BME280;28727;50.068;14.452;2022-09-29T06:38:24;98006.16;;;10.59;66.43
43115;BME280;28727;50.068;14.452;2022-09-29T06:40:56;98000.88;;;10.85;65.22
43115;BME280;28727;50.068;14.452;2022-09-29T06:43:34;98003.09;;;11.08;64.71
43115;BME280;28727;50.068;14.452;2022-09-29T06:46:09;98007.72;;;11.32;64.19
43115;BME280;28727;50.068;14.452;2022-09-29T06:48:41;98005.25;;;11.57;63.29
43115;BME280;28727;50.068;14.452;2022-09-29T06:51:13;97996.81;;;11.86;62.97
43115;BME280;28727;50.068;14.452;2022-09-29T06:53:46;98001.19;;;12.12;61.37
43115;BME280;28727;50.068;14.452;2022-09-29T06:56:18;97994.75;;;12.33;60.70
43115;BME280;28727;50.068;14.452;2022-09-29T06:58:52;97998.50;;;12.82;60.44
43115;BME280;28727;50.068;14.452;2022-09-29T07:01:24;98003.34;;;13.34;58.35
43115;BME280;28727;50.068;14.452;2022-09-29T07:03:57;98003.31;;;13.59;57.55
43115;BME280;28727;50.068;14.452;2022-09-29T07:06:31;97994.38;;;13.90;56.92
43115;BME280;28727;50.068;14.452;2022-09-29T07:09:05;98001.22;;;14.27;55.57
43115;BME280;28727;50.068;14.452;2022-09-29T07:11:37;98005.50;;;14.58;54.72
43115;BME280;28727;50.068;14.452;2022-09-29T07:14:11;98005.25;;;15.13;53.58
43115;BME280;28727;50.068;14.452;2022-09-29T07:16:44;98003.03;;;15.68;51.57
43115;BME280;28727;50.068;14.452;2022-09-29T07:19:18;98003.84;;;16.09;50.50
43115;BME280;28727;50.068;14.452;2022-09-29T07:21:57;97994.66;;;16.45;49.43
43115;BME280;28727;50.068;14.452;2022-09-29T07:24:29;97991.13;;;16.84;48.76
43115;BME280;28727;50.068;14.452;2022-09-29T07:27:01;97989.56;;;17.22;47.73
43115;BME280;28727;50.068;14.452;2022-09-29T07:29:32;97986.81;;;17.16;46.95
43115;BME280;28727;50.068;14.452;2022-09-29T07:32:08;97989.31;;;17.23;46.80
43115;BME280;28727;50.068;14.452;2022-09-29T07:34:52;97995.53;;;17.29;46.12
43115;BME280;28727;50.068;14.452;2022-09-29T07:37:26;97995.97;;;16.87;45.76
43115;BME280;28727;50.068;14.452;2022-09-29T07:39:58;97995.03;;;16.48;47.05
43115;BME280;28727;50.068;14.452;2022-09-29T07:42:29;98006.16;;;16.17;47.77
43115;BME280;28727;50.068;14.452;2022-09-29T07:45:01;98010.88;;;15.86;48.47
43115;BME280;28727;50.068;14.452;2022-09-29T07:47:36;98016.03;;;15.65;48.89
43115;BME280;28727;50.068;14.452;2022-09-29T07:50:08;98015.41;;;15.51;49.64
43115;BME280;28727;50.068;14.452;2022-09-29T07:52:43;98014.28;;;15.47;50.22
43115;BME280;28727;50.068;14.452;2022-09-29T07:55:15;98019.47;;;15.42;50.18
43115;BME280;28727;50.068;14.452;2022-09-29T07:57:47;98020.28;;;15.42;50.43
43115;BME280;28727;50.068;14.452;2022-09-29T08:00:19;98015.31;;;15.34;50.74
43115;BME280;28727;50.068;14.452;2022-09-29T08:02:52;98013.13;;;15.43;50.39
43115;BME280;28727;50.068;14.452;2022-09-29T08:05:26;98015.91;;;15.60;50.12
43115;BME280;28727;50.068;14.452;2022-09-29T08:08:02;98012.56;;;16.04;49.98
43115;BME280;28727;50.068;14.452;2022-09-29T08:10:37;98012.56;;;16.04;49.56
43115;BME280;28727;50.068;14.452;2022-09-29T08:13:23;98019.72;;;16.15;49.51
43115;BME280;28727;50.068;14.452;2022-09-29T08:15:59;98021.06;;;16.29;48.88
43115;BME280;28727;50.068;14.452;2022-09-29T08:18:33;98017.28;;;16.42;49.31
43115;BME280;28727;50.068;14.452;2022-09-29T08:21:05;98019.00;;;16.48;49.29
43115;BME280;28727;50.068;14.452;2022-09-29T08:23:38;98024.16;;;16.66;48.82
43115;BME280;28727;50.068;14.452;2022-09-29T08:26:15;98024.09;;;16.78;48.35
43115;BME280;28727;50.068;14.452;2022-09-29T08:28:48;98036.94;;;17.14;48.88
43115;BME280;28727;50.068;14.452;2022-09-29T08:31:35;98031.28;;;17.61;48.34
43115;BME280;28727;50.068;14.452;2022-09-29T08:34:09;98030.31;;;18.11;46.75
43115;BME280;28727;50.068;14.452;2022-09-29T08:36:40;98028.31;;;18.23;45.52
43115;BME280;28727;50.068;14.452;2022-09-29T08:39:12;98034.41;;;18.18;45.13
43115;BME280;28727;50.068;14.452;2022-09-29T08:42:04;98036.97;;;18.08;45.15
43115;BME280;28727;50.068;14.452;2022-09-29T08:44:46;98034.50;;;18.02;45.11
43115;BME280;28727;50.068;14.452;2022-09-29T08:47:31;98039.13;;;18.11;44.92
43115;BME280;28727;50.068;14.452;2022-09-29T08:50:36;98045.84;;;18.84;44.20
43115;BME280;28727;50.068;14.452;2022-09-29T08:53:16;98036.53;;;19.55;42.50
43115;BME280;28727;50.068;14.452;2022-09-29T08:56:05;98037.84;;;20.10;41.38
43115;BME280;28727;50.068;14.452;2022-09-29T08:58:38;98045.22;;;20.35;40.69
43115;BME280;28727;50.068;14.452;2022-09-29T09:01:34;98048.53;;;20.82;39.43
43115;BME280;28727;50.068;14.452;2022-09-29T09:12:52;98038.00;;;21.97;37.26
43115;BME280;28727;50.068;14.452;2022-09-29T09:23:55;98056.63;;;21.58;37.38
43115;BME280;28727;50.068;14.452;2022-09-29T09:26:41;98049.66;;;21.22;37.51
43115;BME280;28727;50.068;14.452;2022-09-29T09:32:18;98044.50;;;21.76;36.17
43115;BME280;28727;50.068;14.452;2022-09-29T09:38:00;98055.25;;;21.71;35.90
43115;BME280;28727;50.068;14.452;2022-09-29T09:40:39;98056.09;;;21.51;36.22
43115;BME280;28727;50.068;14.452;2022-09-29T09:43:34;98059.03;;;21.60;36.14
43115;BME280;28727;50.068;14.452;2022-09-29T09:46:22;98054.50;;;21.55;36.22
43115;BME280;28727;50.068;14.452;2022-09-29T09:51:37;98058.69;;;21.87;35.61
43115;BME280;28727;50.068;14.452;2022-09-29T09:54:26;98058.06;;;22.30;35.53
43115;BME280;28727;50.068;14.452;2022-09-29T10:02:51;98059.56;;;22.52;34.08
43115;BME280;28727;50.068;14.452;2022-09-29T10:05:31;98063.47;;;22.25;33.23
43115;BME280;28727;50.068;14.452;2022-09-29T10:08:09;98058.63;;;22.17;33.97
43115;BME280;28727;50.068;14.452;2022-09-29T10:10:45;98047.66;;;21.98;33.59
43115;BME280;28727;50.068;14.452;2022-09-29T10:13:30;98055.50;;;21.95;33.43
43115;BME280;28727;50.068;14.452;2022-09-29T10:16:15;98050.13;;;21.80;33.31
43115;BME280;28727;50.068;14.452;2022-09-29T10:18:49;98059.06;;;21.55;34.04
43115;BME280;28727;50.068;14.452;2022-09-29T10:21:40;98062.03;;;21.38;33.76
43115;BME280;28727;50.068;14.452;2022-09-29T10:24:27;98056.91;;;21.27;33.76
43115;BME280;28727;50.068;14.452;2022-09-29T10:27:00;98055.56;;;21.14;34.21
43115;BME280;28727;50.068;14.452;2022-09-29T10:29:39;98050.47;;;21.33;33.27
43115;BME280;28727;50.068;14.452;2022-09-29T10:32:15;98045.09;;;21.17;33.78
43115;BME280;28727;50.068;14.452;2022-09-29T10:34:52;98043.78;;;21.20;33.37
43115;BME280;28727;50.068;14.452;2022-09-29T10:37:39;98044.03;;;21.18;34.03
43115;BME280;28727;50.068;14.452;2022-09-29T10:40:17;98045.28;;;20.60;34.27
43115;BME280;28727;50.068;14.452;2022-09-29T10:43:19;98055.81;;;21.02;33.93
43115;BME280;28727;50.068;14.452;2022-09-29T10:45:57;98055.31;;;21.36;33.18
43115;BME280;28727;50.068;14.452;2022-09-29T10:48:30;98058.25;;;21.54;33.23
43115;BME280;28727;50.068;14.452;2022-09-29T10:51:03;98049.94;;;21.41;32.73
43115;BME280;28727;50.068;14.452;2022-09-29T10:53:40;98049.88;;;21.71;33.65
43115;BME280;28727;50.068;14.452;2022-09-29T10:56:18;98045.47;;;22.11;31.99
43115;BME280;28727;50.068;14.452;2022-09-29T10:59:17;98050.56;;;22.71;32.17
43115;BME280;28727;50.068;14.452;2022-09-29T11:01:57;98047.00;;;23.20;29.71
43115;BME280;28727;50.068;14.452;2022-09-29T11:04:32;98044.44;;;23.34;29.84
43115;BME280;28727;50.068;14.452;2022-09-29T11:07:09;98051.44;;;23.06;29.77
43115;BME280;28727;50.068;14.452;2022-09-29T11:09:44;98056.09;;;22.46;30.51
43115;BME280;28727;50.068;14.452;2022-09-29T11:12:25;98056.38;;;22.39;30.56
43115;BME280;28727;50.068;14.452;2022-09-29T11:15:01;98056.63;;;22.48;30.72
43115;BME280;28727;50.068;14.452;2022-09-29T11:17:37;98049.38;;;22.38;29.65
43115;BME280;28727;50.068;14.452;2022-09-29T11:20:13;98044.13;;;22.62;29.60
43115;BME280;28727;50.068;14.452;2022-09-29T11:26:07;98034.06;;;22.34;29.77
43115;BME280;28727;50.068;14.452;2022-09-29T11:42:53;98048.53;;;22.48;28.37
43115;BME280;28727;50.068;14.452;2022-09-29T11:45:45;98050.19;;;22.39;27.76
43115;BME280;28727;50.068;14.452;2022-09-29T11:51:23;98046.63;;;22.54;27.76
43115;BME280;28727;50.068;14.452;2022-09-29T11:56:55;98040.47;;;21.79;29.29
43115;BME280;28727;50.068;14.452;2022-09-29T12:02:45;98034.31;;;20.92;30.89
43115;BME280;28727;50.068;14.452;2022-09-29T12:05:27;98031.91;;;20.96;30.51
43115;BME280;28727;50.068;14.452;2022-09-29T12:11:06;98025.09;;;21.99;29.64
43115;BME280;28727;50.068;14.452;2022-09-29T12:17:14;98026.13;;;22.03;28.64
43115;BME280;28727;50.068;14.452;2022-09-29T12:20:05;98028.91;;;21.68;29.71
43115;BME280;28727;50.068;14.452;2022-09-29T12:22:44;98030.59;;;21.29;30.85
43115;BME280;28727;50.068;14.452;2022-09-29T12:25:20;98030.03;;;20.96;30.39
43115;BME280;28727;50.068;14.452;2022-09-29T12:28:15;98026.22;;;20.62;30.29
43115;BME280;28727;50.068;14.452;2022-09-29T12:30:59;98023.84;;;20.70;30.36
43115;BME280;28727;50.068;14.452;2022-09-29T12:33:37;98017.91;;;20.63;30.74
43115;BME280;28727;50.068;14.452;2022-09-29T12:36:45;98022.19;;;20.49;30.94
43115;BME280;28727;50.068;14.452;2022-09-29T12:45:11;98022.00;;;20.96;30.29
43115;BME280;28727;50.068;14.452;2022-09-29T12:50:41;98021.25;;;20.08;31.24
43115;BME280;28727;50.068;14.452;2022-09-29T12:53:46;98028.00;;;19.69;31.61
43115;BME280;28727;50.068;14.452;2022-09-29T12:56:28;98029.94;;;19.73;32.13
43115;BME280;28727;50.068;14.452;2022-09-29T13:17:40;98031.38;;;18.10;36.28
43115;BME280;28727;50.068;14.452;2022-09-29T13:29:22;98040.44;;;16.98;38.14
43115;BME280;28727;50.068;14.452;2022-09-29T13:31:57;98048.25;;;16.71;38.40
43115;BME280;28727;50.068;14.452;2022-09-29T13:34:32;98043.09;;;16.53;40.11
43115;BME280;28727;50.068;14.452;2022-09-29T13:37:16;98041.06;;;16.72;40.37
43115;BME280;28727;50.068;14.452;2022-09-29T13:40:00;98044.00;;;17.04;40.36
43115;BME280;28727;50.068;14.452;2022-09-29T13:42:47;98046.41;;;17.22;40.13
43115;BME280;28727;50.068;14.452;2022-09-29T13:51:21;98039.84;;;17.63;40.34
43115;BME280;28727;50.068;14.452;2022-09-29T13:59:37;98038.47;;;17.99;40.47
43115;BME280;28727;50.068;14.452;2022-09-29T14:02:48;98042.28;;;17.86;41.89
43115;BME280;28727;50.068;14.452;2022-09-29T14:10:41;98054.25;;;17.45;41.89
43115;BME280;28727;50.068;14.452;2022-09-29T14:13:33;98049.56;;;17.02;42.93
43115;BME280;28727;50.068;14.452;2022-09-29T14:18:51;98051.03;;;16.36;44.47
43115;BME280;28727;50.068;14.452;2022-09-29T14:21:57;98050.59;;;16.28;44.07
43115;BME280;28727;50.068;14.452;2022-09-29T14:29:50;98060.06;;;16.07;44.35
43115;BME280;28727;50.068;14.452;2022-09-29T14:32:41;98064.59;;;15.95;43.89
43115;BME280;28727;50.068;14.452;2022-09-29T14:38:15;98060.78;;;15.79;43.96
43115;BME280;28727;50.068;14.452;2022-09-29T14:43:46;98072.94;;;15.40;44.90
43115;BME280;28727;50.068;14.452;2022-09-29T14:59:04;98101.03;;;15.13;45.76
43115;BME280;28727;50.068;14.452;2022-09-29T15:04:37;98092.31;;;15.06;45.74
43115;BME280;28727;50.068;14.452;2022-09-29T15:07:12;98092.66;;;15.09;45.75
43115;BME280;28727;50.068;14.452;2022-09-29T15:09:50;98093.38;;;15.16;45.19
43115;BME280;28727;50.068;14.452;2022-09-29T15:12:29;98082.53;;;15.18;44.95
43115;BME280;28727;50.068;14.452;2022-09-29T15:15:02;98085.88;;;15.25;45.05
43115;BME280;28727;50.068;14.452;2022-09-29T15:17:55;98091.84;;;15.09;45.65
43115;BME280;28727;50.068;14.452;2022-09-29T15:20:36;98088.50;;;15.02;45.96
43115;BME280;28727;50.068;14.452;2022-09-29T15:26:25;98099.16;;;15.02;46.19
43115;BME280;28727;50.068;14.452;2022-09-29T15:28:58;98106.53;;;15.00;46.33
43115;BME280;28727;50.068;14.452;2022-09-29T15:31:32;98109.19;;;15.00;46.71
43115;BME280;28727;50.068;14.452;2022-09-29T15:34:14;98113.22;;;15.02;46.29
43115;BME280;28727;50.068;14.452;2022-09-29T15:36:52;98124.94;;;15.01;46.37
43115;BME280;28727;50.068;14.452;2022-09-29T15:42:12;98124.50;;;14.86;46.45
43115;BME280;28727;50.068;14.452;2022-09-29T15:44:57;98127.25;;;14.80;46.61
43115;BME280;28727;50.068;14.452;2022-09-29T15:47:36;98135.91;;;14.75;46.87
43115;BME280;28727;50.068;14.452;2022-09-29T15:50:21;98138.66;;;14.68;46.65
43115;BME280;28727;50.068;14.452;2022-09-29T15:52:59;98148.88;;;14.53;46.81
43115;BME280;28727;50.068;14.452;2022-09-29T15:55:35;98147.03;;;14.54;47.27
43115;BME280;28727;50.068;14.452;2022-09-29T16:00:59;98161.41;;;14.64;47.30
43115;BME280;28727;50.068;14.452;2022-09-29T16:03:44;98173.09;;;14.63;47.55
43115;BME280;28727;50.068;14.452;2022-09-29T16:06:29;98179.81;;;14.66;47.37
43115;BME280;28727;50.068;14.452;2022-09-29T16:09:06;98191.09;;;14.61;47.42
43115;BME280;28727;50.068;14.452;2022-09-29T16:11:47;98189.50;;;14.60;47.44
43115;BME280;28727;50.068;14.452;2022-09-29T16:14:27;98193.38;;;14.58;47.83
43115;BME280;28727;50.068;14.452;2022-09-29T16:17:00;98194.28;;;14.52;47.69
43115;BME280;28727;50.068;14.452;2022-09-29T16:19:32;98195.97;;;14.46;48.26
43115;BME280;28727;50.068;14.452;2022-09-29T16:22:05;98192.16;;;14.42;48.86
43115;BME280;28727;50.068;14.452;2022-09-29T16:24:54;98190.75;;;14.40;48.79
43115;BME280;28727;50.068;14.452;2022-09-29T16:30:35;98194.25;;;14.33;49.59
43115;BME280;28727;50.068;14.452;2022-09-29T16:33:15;98196.69;;;14.35;49.64
43115;BME280;28727;50.068;14.452;2022-09-29T16:36:00;98196.69;;;14.35;49.52
43115;BME280;28727;50.068;14.452;2022-09-29T16:38:41;98193.06;;;14.29;50.44
43115;BME280;28727;50.068;14.452;2022-09-29T16:41:27;98183.19;;;14.18;50.64
43115;BME280;28727;50.068;14.452;2022-09-29T16:44:14;98192.84;;;14.13;50.98
43115;BME280;28727;50.068;14.452;2022-09-29T16:46:53;98189.72;;;14.16;50.96
43115;BME280;28727;50.068;14.452;2022-09-29T16:52:14;98193.81;;;14.18;50.91
43115;BME280;28727;50.068;14.452;2022-09-29T16:55:06;98190.75;;;14.15;51.49
43115;BME280;28727;50.068;14.452;2022-09-29T16:57:49;98192.03;;;14.12;51.81
43115;BME280;28727;50.068;14.452;2022-09-29T17:00:25;98199.03;;;14.07;52.26